Terminal Aerodrome Forecast
Issued by NWS Portland, ME

Home | Current Version | Previous Version | Text Only | Print | Product List | Glossary On
Versions: 1 2 3 4 5 6 7 8 9 10 11 12 13 14 15 16 17 18 19 20 21 22 23 24
000
FTUS41 KGYX 251322 AAA
TAFPWM
TAF AMD
KPWM 251322Z 2513/2612 17004KT 1/4SM FG VV002
     FM251700 VRB03KT 3SM BR BKN020
     FM251900 16006KT P6SM -SHRA BKN015
     FM260500 25010KT 5SM SHRA BR OVC025
     FM260800 28012G19KT P6SM SCT040=

USA.gov is the U.S. government's official web portal to all federal, state and local government web resources and services.